Villa Grove, CO

7:01 AM MDT on August 20, 2014 (GMT -0600)
Monarch Pass | Change Station
CLOSE
Current Station
Airport
Location: Monarch Pass,
Elevation: 12031 ft
Nearby Weather Stations

Elev 12031 ft 38.48 °N, 106.32 °W | Updated 8 minutes ago

Fog
Fog
41 °F
Feels Like 32 °F
N
18
Wind Variable Wind from WSW

Today
High -- | Low -- °F
--% Chance of Precip.
Yesterday
High -- | Low -- °F
Precip. -- in
6:23 AM 7:51 PM
Waning Crescent, 22% visible
Pressure 30.50 in
Visibility 0.2 miles
Clouds Overcast 200 ft
Windchill 32 °F
Dew Point 41 °F
Humidity 100%
Rainfall 0.00 in
Snow Depth 0 in
UV 0 out of 12
Pollen 10.30 out of 12
Air Quality Not available.
Flu Activity Not available.
METAR KMYP 201253Z AUTO 24016KT M1/4SM FG OVC002 05/05 A3050 RMK AO2

More Conditions Fewer Conditions

Pressure 30.50 in
Visibility 0.2 miles
Clouds Overcast 200 ft
Windchill 32 °F
Dew Point 41 °F
Humidity 100%
Rainfall 0.00 in
Snow Depth 0 in
UV 0 out of 12
Pollen 10.30 out of 12
Air Quality Not available.
Flu Activity Not available.
METAR KMYP 201253Z AUTO 24016KT M1/4SM FG OVC002 05/05 A3050 RMK AO2

More Conditions Fewer Conditions

10-Day Weather Forecast

Almanac

Astronomy

Aug. 20, 2014 Rise Set
Actual Time 6:23 AM MDT 7:51 PM MDT
Civil Twilight 5:56 AM MDT 8:19 PM MDT
Nautical Twilight 5:22 AM MDT 8:52 PM MDT
Astronomical Twilight 4:47 AM MDT 9:27 PM MDT
Moon 2:07 AM MDT 4:37 PM MDT
Length of Visible Light 14h 23m
Length of Day
13h 27m
Tomorrow will be 2m 16s shorter.
Waning Crescent, 22% of the Moon is Illuminated
Today
Waning Crescent
Aug 25
New
Sep 2
First Quarter
Sep 8
Full
Sep 15
Last Quarter

Today's Extremes

State Highs State Lows

Community

WunderPhotos

Upload Photos

1,745,620 photos uploaded!

Nearby

Snow Depth

Station Depth Elevation
Porphyry Creek 0 in 10760 ft
Cochetopa Pass 0 in 10020 ft
Park Cone 0 in 9600 ft
Rough And Tumble 1 in 10360 ft
Medano Pass 0 in 9620 ft

Earthquake Activity

City Distance Mag. Time & Date
No recent earthquake activity has been reported nearby.
Minimum magnitude displayed is 2.5.

Coastal Water Temperatures

Place Temperature
No Stations Reporting

Nearby Weather Stations